»·PEaware :: N241BJ KBUR-KNZY

N241BJ :: KBUR-KNZY

FLIGHT INFORMATION

Flight Status: Arrived
Operator: Privately registered:
United States
More flights under this callsign
Pilot: Anonymous 14085 (14085)
Aircraft: PIPER PA-31/31P NAVAJO CHIEFTAIN
(PA31)
More flights by this aircraft type
Origin: KBUR Bob Hope-Burbank
United States
Destination: KNZY North Island NAS
United States
More flights between these airports :: More routes between these airports
Route: ELMOO8 ELMOO V186 HAILE V66 MZB
File this flight plan on PilotEdge
Remarks:
Altitude:
(Current/Filed)
9,000ft
Speed:
(Current/Filed)
200kts
Departed: 18-May-17 07:16 PM
Arrived: 18-May-17 08:07 PM
Distance/Time
Traveled:
3010nm/0:50
Distance/Time
To Go:
Arrived

Flight Plot

Page will automatically refresh every two minutes.

Flight plan parsing failed; only flown route is shown


Map Options




Map Legend


Flown Route
Filed Route
Departure Airport
Arrival Airport
Navaid (VOR, NDB)
Fix

Horizontal Profiles

Position Reports

Time Latitude Longitude Heading Altitude Ground
Speed
18-May-17 18:51 34.200394 -118.364042 182 780ft 0kts
18-May-17 18:52 34.200394 -118.364042 182 780ft 0kts
18-May-17 18:53 34.200394 -118.364042 182 780ft 0kts
18-May-17 18:54 34.200394 -118.364042 182 780ft 0kts
18-May-17 18:55 34.200394 -118.364042 181 780ft 0kts
18-May-17 18:56 34.200394 -118.364042 182 780ft 0kts
18-May-17 18:57 34.200394 -118.364042 182 780ft 0kts
18-May-17 18:58 34.200394 -118.364042 182 780ft 0kts
18-May-17 18:59 34.200394 -118.364042 182 780ft 0kts
18-May-17 19:00 34.200379 -118.364043 182 780ft 0kts
18-May-17 19:01 34.200379 -118.364043 182 780ft 0kts
18-May-17 19:02 34.200379 -118.364043 182 780ft 0kts
18-May-17 19:03 34.200379 -118.364043 182 780ft 0kts
18-May-17 19:04 34.200379 -118.364043 182 780ft 0kts
18-May-17 19:05 34.200379 -118.364043 182 780ft 0kts
18-May-17 19:06 34.200379 -118.364043 182 780ft 0kts
18-May-17 19:07 34.200379 -118.364043 182 780ft 0kts
18-May-17 19:08 34.200379 -118.364043 182 780ft 0kts
18-May-17 19:09 34.200379 -118.364043 182 780ft 0kts
18-May-17 19:10 34.200379 -118.364043 182 780ft 0kts
18-May-17 19:11 34.200379 -118.364043 182 780ft 0kts
18-May-17 19:12 34.200379 -118.364043 182 780ft 0kts
18-May-17 19:13 34.200320 -118.364050 189 780ft 3kts
18-May-17 19:14 34.199075 -118.365008 267 780ft 7kts
18-May-17 19:15 34.199127 -118.368335 270 780ft 10kts
18-May-17 19:16 34.198356 -118.368987 179 780ft 8kts
18-May-17 19:17 34.197920 -118.368685 80 780ft 0kts
18-May-17 19:18 34.196883 -118.350010 100 1168ft 110kts
18-May-17 19:19 34.183081 -118.325690 141 2172ft 119kts
18-May-17 19:20 34.162484 -118.293752 110 3363ft 122kts
18-May-17 19:21 34.151242 -118.257189 107 4536ft 116kts
18-May-17 19:22 34.143760 -118.232901 103 5347ft 112kts
18-May-17 19:23 34.133174 -118.199326 113 6490ft 117kts
18-May-17 19:24 34.113731 -118.166699 120 7122ft 152kts
18-May-17 19:25 34.088111 -118.125551 123 7759ft 166kts
18-May-17 19:26 34.062088 -118.084302 122 8516ft 161kts
18-May-17 19:27 34.035857 -118.042401 122 9020ft 173kts
18-May-17 19:28 34.006512 -117.995646 122 9017ft 183kts
18-May-17 19:29 33.975918 -117.946927 123 9043ft 193kts
18-May-17 19:30 33.944501 -117.896970 123 9043ft 195kts
18-May-17 19:31 33.912978 -117.846932 123 9043ft 196kts
18-May-17 19:32 33.884512 -117.801798 123 9039ft 197kts
18-May-17 19:33 33.852844 -117.751648 123 9013ft 198kts
18-May-17 19:34 33.820846 -117.701030 123 9012ft 198kts
18-May-17 19:35 33.788426 -117.649851 123 9012ft 198kts
18-May-17 19:36 33.757223 -117.600625 123 9012ft 198kts
18-May-17 19:37 33.725484 -117.550630 123 9012ft 198kts
18-May-17 19:38 33.693641 -117.500627 123 9012ft 197kts
18-May-17 19:39 33.660913 -117.449196 123 9013ft 198kts
18-May-17 19:40 33.628459 -117.398265 123 9013ft 199kts
18-May-17 19:41 33.596998 -117.348997 123 9014ft 198kts
18-May-17 19:42 33.565739 -117.300101 123 9039ft 198kts
18-May-17 19:43 33.534478 -117.251263 124 9040ft 198kts
18-May-17 19:44 33.503098 -117.202323 124 9040ft 198kts
18-May-17 19:45 33.467564 -117.160152 165 9027ft 201kts
18-May-17 19:46 33.415254 -117.148181 171 9022ft 202kts
18-May-17 19:47 33.362799 -117.137135 170 9022ft 202kts
18-May-17 19:48 33.310344 -117.126033 170 9023ft 202kts
18-May-17 19:49 33.259108 -117.109886 151 9007ft 199kts
18-May-17 19:50 33.211752 -117.080089 151 8225ft 195kts
18-May-17 19:51 33.169063 -117.053013 151 7763ft 185kts
18-May-17 19:52 33.125579 -117.025300 151 7025ft 199kts
18-May-17 19:53 33.078412 -116.994915 151 6096ft 205kts
18-May-17 19:54 33.032647 -116.965200 151 5996ft 192kts
18-May-17 19:55 32.986012 -116.957412 180 5999ft 183kts
18-May-17 19:56 32.945558 -116.957764 181 5880ft 186kts
18-May-17 19:57 32.895409 -116.956749 180 5019ft 199kts
18-May-17 19:58 32.848287 -116.955392 181 4991ft 175kts
18-May-17 19:59 32.804244 -116.953922 181 4993ft 171kts
18-May-17 20:00 32.759927 -116.965149 200 4375ft 188kts
18-May-17 20:01 32.716172 -116.984670 201 3987ft 165kts
18-May-17 20:02 32.681753 -117.004461 242 3984ft 136kts
18-May-17 20:03 32.669499 -117.043535 279 4001ft 133kts
18-May-17 20:04 32.669508 -117.080916 271 2941ft 106kts
18-May-17 20:05 32.670788 -117.112667 286 1789ft 112kts
18-May-17 20:06 32.677686 -117.144150 280 1073ft 104kts
18-May-17 20:07 32.681472 -117.176392 286 853ft 112kts
18-May-17 20:08 32.693917 -117.205321 303 31ft 77kts
18-May-17 20:09 32.698074 -117.211907 22 30ft 10kts
18-May-17 20:10 32.698438 -117.211250 121 30ft 0kts
18-May-17 20:11 32.698438 -117.211250 121 30ft 0kts
18-May-17 20:12 32.698438 -117.211250 121 30ft 0kts
18-May-17 20:13 32.698438 -117.211250 121 30ft 0kts
18-May-17 20:14 32.698438 -117.211250 121 30ft 0kts
18-May-17 20:15 32.698438 -117.211250 121 30ft 0kts
18-May-17 20:16 28.197536 -177.392711 68 16ft 0kts

Navigation Log

Ident Type
Flight plan parsing failed, navigation log unavailable